Time;durP1;ratioP1;P1;durP2;ratioP2;P2;SDS_P1;SDS_P2;PMS_P1;PMS_P2;Temp;Humidity;BMP_temperature;BMP_pressure;BME280_temperature;BME280_humidity;BME280_pressure;Samples;Min_cycle;Max_cycle;Signal;HPM_P1;HPM_P2
2023/04/28 00:00:04;;;;;;;5.07;4.50;;;12.90;66.30;13.00;96428.00;;;;5095048;28;20222;-85
2023/04/28 00:02:34;;;;;;;7.47;4.40;;;13.00;66.40;13.00;96423.00;;;;5090938;28;20633;-85
2023/04/28 00:05:03;;;;;;;4.63;4.27;;;13.00;66.50;13.00;96418.00;;;;5086904;28;20199;-84
2023/04/28 00:07:31;;;;;;;5.03;4.30;;;12.90;66.60;13.00;96412.00;;;;5093638;28;20195;-84
2023/04/28 00:10:03;;;;;;;5.93;4.90;;;13.00;66.70;13.10;96404.00;;;;5095192;28;20239;-83
2023/04/28 00:12:30;;;;;;;5.00;4.50;;;13.00;66.80;13.10;96411.00;;;;5098089;28;20206;-84
2023/04/28 00:14:59;;;;;;;5.17;4.77;;;13.00;66.70;13.10;96400.00;;;;5075418;28;20198;-83
2023/04/28 00:17:28;;;;;;;5.70;5.10;;;13.00;66.70;13.10;96401.00;;;;5092689;28;20191;-83
2023/04/28 00:19:57;;;;;;;4.77;3.90;;;13.00;66.80;13.10;96401.00;;;;5100210;28;20215;-84
2023/04/28 00:22:24;;;;;;;4.37;3.97;;;13.00;66.80;13.10;96397.00;;;;5100688;28;20215;-84
2023/04/28 00:24:53;;;;;;;4.87;4.40;;;13.00;66.70;13.10;96404.00;;;;5095464;28;20223;-83
2023/04/28 00:27:21;;;;;;;4.70;4.30;;;13.00;66.50;13.10;96409.00;;;;5099932;28;20421;-84
2023/04/28 00:29:49;;;;;;;4.90;4.50;;;13.00;66.30;13.00;96399.00;;;;5097820;28;20590;-84
2023/04/28 00:32:20;;;;;;;5.23;4.57;;;13.00;66.30;13.00;96387.00;;;;5099739;28;20203;-83
2023/04/28 00:34:47;;;;;;;4.37;4.00;;;14.10;67.20;13.00;96390.00;;;;5100803;28;20671;-84
2023/04/28 00:37:16;;;;;;;5.10;4.20;;;12.90;66.60;13.00;96393.00;;;;5077011;28;20203;-84
2023/04/28 00:39:45;;;;;;;4.57;4.17;;;12.90;66.60;13.00;96386.00;;;;5096942;28;20219;-84
2023/04/28 00:42:16;;;;;;;5.10;4.50;;;13.00;66.70;13.00;96391.00;;;;5100278;28;20204;-84
2023/04/28 00:44:43;;;;;;;4.30;3.90;;;12.90;66.80;13.00;96389.00;;;;5102767;28;20191;-84
2023/04/28 00:47:12;;;;;;;6.17;4.43;;;12.90;67.00;13.00;96387.00;;;;5101145;28;20770;-84
2023/04/28 00:49:41;;;;;;;4.90;4.10;;;12.90;67.00;13.00;96382.00;;;;5099709;28;20199;-84
2023/04/28 00:52:09;;;;;;;4.60;4.17;;;12.90;67.10;13.00;96379.00;;;;5090972;28;20231;-84
2023/04/28 00:54:38;;;;;;;6.03;4.60;;;12.90;67.20;13.00;96389.00;;;;5095847;28;20646;-83
2023/04/28 00:57:07;;;;;;;6.27;4.60;;;12.90;68.00;13.00;96366.00;;;;5094157;28;20223;-83
2023/04/28 00:59:34;;;;;;;4.43;4.03;;;13.00;67.40;13.10;96382.00;;;;5099105;28;20298;-83
2023/04/28 01:02:03;;;;;;;4.93;4.40;;;13.00;67.30;13.10;96378.00;;;;5091527;28;20283;-85
2023/04/28 01:04:31;;;;;;;5.47;4.77;;;12.90;67.10;13.10;96373.00;;;;5101422;28;20591;-83
2023/04/28 01:07:03;;;;;;;4.57;4.17;;;12.90;67.00;13.10;96367.00;;;;5101193;28;20595;-83
2023/04/28 01:09:30;;;;;;;4.67;4.23;;;13.00;67.10;13.00;96373.00;;;;5098095;28;20199;-84
2023/04/28 01:11:59;;;;;;;5.57;4.60;;;12.90;67.20;13.10;96371.00;;;;5092719;28;20202;-84
2023/04/28 01:14:26;;;;;;;5.27;4.77;;;13.00;67.10;13.10;96372.00;;;;5096169;28;20308;-83
2023/04/28 01:16:54;;;;;;;5.20;4.70;;;13.00;67.00;13.10;96370.00;;;;5104046;28;20211;-83
2023/04/28 01:19:23;;;;;;;4.87;4.37;;;13.00;66.90;13.10;96374.00;;;;5099892;28;20278;-83
2023/04/28 01:21:52;;;;;;;4.87;4.37;;;13.00;67.00;13.00;96367.00;;;;5099324;28;20195;-85
2023/04/28 01:24:22;;;;;;;4.67;4.20;;;13.00;67.00;13.00;96357.00;;;;5097720;28;20290;-84
2023/04/28 01:26:49;;;;;;;4.80;4.40;;;13.00;67.10;13.00;96345.00;;;;5100080;28;20215;-82
2023/04/28 01:29:16;;;;;;;4.70;4.30;;;13.00;67.20;13.10;96351.00;;;;5099620;28;20200;-83
2023/04/28 01:31:44;;;;;;;5.07;4.03;;;12.90;67.20;13.00;96343.00;;;;5102028;28;20196;-83
2023/04/28 01:34:12;;;;;;;4.93;4.53;;;12.90;67.40;13.00;96339.00;;;;5101089;28;20211;-83
2023/04/28 01:36:40;;;;;;;4.30;4.00;;;12.90;67.40;13.00;96346.00;;;;5103926;28;20254;-83
2023/04/28 01:39:07;;;;;;;4.77;4.37;;;12.90;67.40;13.00;96339.00;;;;5104886;28;20234;-84
2023/04/28 01:41:36;;;;;;;4.57;4.17;;;12.90;67.40;13.00;96335.00;;;;5103141;28;20237;-83
2023/04/28 01:44:06;;;;;;;4.10;3.70;;;13.00;67.70;13.10;96336.00;;;;5102060;28;20677;-83
2023/04/28 01:46:33;;;;;;;5.43;4.30;;;13.00;67.80;13.10;96342.00;;;;5102912;28;20202;-83
2023/04/28 01:49:01;;;;;;;4.67;4.10;;;13.00;67.90;13.10;96344.00;;;;5101168;28;20266;-86
2023/04/28 01:51:28;;;;;;;5.40;4.30;;;13.00;68.00;13.10;96345.00;;;;5090596;28;20204;-84
2023/04/28 01:53:56;;;;;;;4.60;4.20;;;13.00;68.10;13.10;96348.00;;;;5098962;28;20250;-83
2023/04/28 01:56:23;;;;;;;4.93;4.07;;;13.00;68.10;13.10;96359.00;;;;5098982;28;20211;-83
2023/04/28 01:58:52;;;;;;;5.00;4.50;;;13.10;68.20;13.20;96360.00;;;;5099229;28;20589;-84
2023/04/28 02:01:19;;;;;;;4.27;3.87;;;13.00;68.70;13.20;96365.00;;;;5097704;28;20729;-84
2023/04/28 02:03:47;;;;;;;6.50;4.17;;;13.10;67.90;13.20;96370.00;;;;5098558;28;20228;-84
2023/04/28 02:06:15;;;;;;;4.50;4.00;;;13.10;68.00;13.20;96363.00;;;;5092334;28;20225;-85
2023/04/28 02:08:42;;;;;;;6.03;4.50;;;13.10;68.10;13.30;96359.00;;;;5091922;28;20278;-85
2023/04/28 02:11:09;;;;;;;6.50;3.93;;;13.10;68.10;13.30;96368.00;;;;5090488;28;20570;-85
2023/04/28 02:13:36;;;;;;;4.50;4.07;;;13.10;67.90;13.30;96365.00;;;;5093482;28;20300;-85
2023/04/28 02:16:06;;;;;;;5.03;4.43;;;13.20;67.90;13.30;96358.00;;;;5093931;28;20202;-85
2023/04/28 02:18:34;;;;;;;4.73;4.30;;;13.20;67.90;13.30;96350.00;;;;5096814;28;20627;-83
2023/04/28 02:21:10;;;;;;;4.97;4.23;;;13.20;67.90;13.40;96339.00;;;;5095820;28;20234;-85
2023/04/28 02:23:37;;;;;;;4.40;4.00;;;13.20;68.00;13.40;96331.00;;;;5092378;28;20222;-85
2023/04/28 02:26:06;;;;;;;3.80;3.43;;;13.20;68.00;13.40;96335.00;;;;5094134;28;20625;-85
2023/04/28 02:28:33;;;;;;;4.17;3.77;;;13.30;68.10;13.40;96336.00;;;;5093830;28;20283;-84
2023/04/28 02:31:07;;;;;;;3.83;3.53;;;13.30;68.00;13.40;96328.00;;;;5094276;28;20238;-85
2023/04/28 02:33:35;;;;;;;4.93;3.97;;;13.30;67.90;13.40;96328.00;;;;5091396;28;20223;-85
2023/04/28 02:36:04;;;;;;;5.90;4.17;;;13.30;68.00;13.40;96334.00;;;;5088630;28;20255;-85
2023/04/28 02:38:31;;;;;;;4.83;4.10;;;13.30;68.00;13.40;96331.00;;;;5089041;28;20670;-85
2023/04/28 02:41:01;;;;;;;4.37;3.97;;;13.30;68.00;13.40;96332.00;;;;5094218;28;20611;-85
2023/04/28 02:43:29;;;;;;;4.70;4.30;;;13.30;67.90;13.50;96329.00;;;;5087464;28;20246;-85
2023/04/28 02:45:57;;;;;;;5.80;4.50;;;13.30;67.80;13.50;96328.00;;;;5094837;28;20191;-85
2023/04/28 02:48:27;;;;;;;4.43;4.03;;;13.30;67.70;13.50;96325.00;;;;5094243;28;20211;-85
2023/04/28 02:50:54;;;;;;;4.67;4.27;;;13.40;67.80;13.50;96326.00;;;;5090339;28;20310;-84
2023/04/28 02:53:23;;;;;;;4.83;4.43;;;13.40;67.80;13.50;96326.00;;;;5094145;28;20219;-84
2023/04/28 02:55:50;;;;;;;4.60;4.20;;;13.40;67.80;13.50;96319.00;;;;5094352;28;20196;-84
2023/04/28 02:58:18;;;;;;;4.93;4.07;;;13.40;67.90;13.60;96332.00;;;;5093618;28;20213;-84
2023/04/28 03:00:46;;;;;;;5.03;4.50;;;13.40;68.00;13.60;96336.00;;;;5096567;28;20302;-85
2023/04/28 03:03:13;;;;;;;4.37;4.00;;;13.50;68.10;13.60;96333.00;;;;5077525;28;20230;-84
2023/04/28 03:05:42;;;;;;;5.37;4.87;;;13.50;68.00;13.60;96326.00;;;;5093378;28;20278;-84
2023/04/28 03:08:09;;;;;;;4.67;4.27;;;13.50;68.10;13.60;96335.00;;;;5094662;28;20250;-84
2023/04/28 03:10:37;;;;;;;5.20;4.37;;;13.50;68.10;13.70;96329.00;;;;5096922;28;20199;-84
2023/04/28 03:13:04;;;;;;;5.10;4.57;;;13.50;68.10;13.70;96321.00;;;;5097965;28;20242;-84
2023/04/28 03:15:31;;;;;;;4.20;3.90;;;13.50;68.10;13.70;96324.00;;;;5098082;28;20222;-84
2023/04/28 03:17:59;;;;;;;4.83;4.40;;;13.50;68.20;13.70;96314.00;;;;5094445;28;20199;-85
2023/04/28 03:20:26;;;;;;;5.20;4.33;;;13.60;68.20;13.70;96308.00;;;;5081036;28;20745;-85
2023/04/28 03:22:54;;;;;;;5.23;4.73;;;13.60;68.20;13.70;96309.00;;;;5092923;28;20219;-86
2023/04/28 03:25:22;;;;;;;4.70;4.30;;;13.60;68.20;13.80;96309.00;;;;5089101;28;20199;-85
2023/04/28 03:27:49;;;;;;;5.10;4.57;;;13.60;68.20;13.80;96314.00;;;;5093547;28;20270;-85
2023/04/28 03:30:16;;;;;;;5.13;4.73;;;13.60;68.30;13.80;96307.00;;;;5092346;28;20199;-85
2023/04/28 03:32:43;;;;;;;6.27;5.00;;;13.60;68.40;13.80;96294.00;;;;5085397;28;20298;-85
2023/04/28 03:35:13;;;;;;;4.80;4.40;;;13.70;68.60;13.80;96295.00;;;;5090244;28;20283;-85
2023/04/28 03:37:40;;;;;;;5.40;5.00;;;13.70;68.70;13.80;96309.00;;;;5092506;28;20274;-85
2023/04/28 03:40:11;;;;;;;5.23;4.73;;;13.70;68.90;13.90;96307.00;;;;5091466;28;20287;-82
2023/04/28 03:42:38;;;;;;;5.50;4.53;;;13.70;69.00;13.90;96299.00;;;;5091271;28;20219;-82
2023/04/28 03:45:07;;;;;;;5.87;4.53;;;13.70;68.80;13.80;96303.00;;;;5098903;28;20222;-82
2023/04/28 03:47:35;;;;;;;6.43;5.83;;;13.70;69.10;13.80;96296.00;;;;5092419;28;20699;-83
2023/04/28 03:50:02;;;;;;;5.57;4.87;;;13.70;69.70;13.80;96296.00;;;;5096431;28;20196;-83
2023/04/28 03:52:30;;;;;;;5.37;4.87;;;13.70;70.00;13.80;96300.00;;;;5096307;28;20262;-82
2023/04/28 03:54:57;;;;;;;5.30;4.80;;;13.70;70.10;13.80;96293.00;;;;5093982;28;20750;-83
2023/04/28 03:57:27;;;;;;;5.57;4.97;;;13.70;69.70;13.70;96311.00;;;;5089193;28;20377;-85
2023/04/28 03:59:54;;;;;;;6.10;5.03;;;13.70;69.50;13.70;96312.00;;;;5082846;28;20264;-84
2023/04/28 04:02:22;;;;;;;5.77;5.27;;;13.70;69.50;13.70;96319.00;;;;5083558;28;20218;-85
2023/04/28 04:04:49;;;;;;;6.10;5.50;;;13.60;69.70;13.70;96318.00;;;;5077568;28;20191;-84
2023/04/28 04:07:16;;;;;;;5.63;5.13;;;13.60;70.00;13.70;96319.00;;;;5090311;28;20286;-84
2023/04/28 04:09:43;;;;;;;5.50;5.07;;;13.60;70.20;13.70;96311.00;;;;5089939;28;20279;-84
2023/04/28 04:12:11;;;;;;;6.97;5.23;;;13.60;70.00;13.70;96292.00;;;;5084819;28;20590;-84
2023/04/28 04:14:39;;;;;;;7.03;5.97;;;13.60;69.60;13.60;96306.00;;;;5092133;28;20241;-85
2023/04/28 04:17:06;;;;;;;6.13;5.43;;;13.60;69.70;13.60;96303.00;;;;5090380;28;20210;-85
2023/04/28 04:19:34;;;;;;;7.17;6.47;;;13.60;70.40;13.60;96296.00;;;;5090104;28;20195;-84
2023/04/28 04:22:01;;;;;;;6.57;5.90;;;13.60;70.90;13.60;96316.00;;;;5091605;28;20211;-84
2023/04/28 04:24:29;;;;;;;5.80;5.20;;;13.50;71.10;13.60;96315.00;;;;5085204;28;20214;-85
2023/04/28 04:26:56;;;;;;;6.63;5.47;;;13.50;71.40;13.60;96315.00;;;;5093695;28;20202;-85
2023/04/28 04:29:23;;;;;;;6.43;5.83;;;13.50;71.70;13.60;96318.00;;;;5088303;28;20229;-85
2023/04/28 04:31:52;;;;;;;6.00;5.53;;;13.50;71.70;13.60;96311.00;;;;5093997;28;20206;-85
2023/04/28 04:34:19;;;;;;;5.77;5.27;;;13.50;71.90;13.60;96301.00;;;;5090469;28;20218;-86
2023/04/28 04:36:46;;;;;;;6.27;5.67;;;13.50;71.90;13.60;96305.00;;;;5092143;28;20286;-86
2023/04/28 04:39:13;;;;;;;5.73;5.23;;;13.50;71.80;13.60;96293.00;;;;5092775;28;20263;-87
2023/04/28 04:41:41;;;;;;;6.20;5.60;;;13.50;71.90;13.60;96299.00;;;;5087523;28;20280;-85
2023/04/28 04:44:09;;;;;;;5.20;4.80;;;13.50;72.20;13.70;96303.00;;;;5084651;28;20219;-86
2023/04/28 04:46:37;;;;;;;6.30;5.70;;;13.50;72.60;13.70;96297.00;;;;5087420;28;20706;-85
2023/04/28 04:49:06;;;;;;;7.03;5.43;;;13.50;72.70;13.70;96301.00;;;;5092448;28;20196;-85
2023/04/28 04:51:33;;;;;;;6.07;5.57;;;13.50;72.80;13.80;96300.00;;;;5085694;28;20318;-85
2023/04/28 04:54:00;;;;;;;6.10;5.47;;;13.50;72.70;13.80;96286.00;;;;5073939;28;20222;-86
2023/04/28 04:56:28;;;;;;;6.50;6.00;;;13.60;72.70;13.80;96294.00;;;;5092894;28;20722;-83
2023/04/28 04:58:56;;;;;;;6.37;5.77;;;13.60;72.70;13.80;96266.00;;;;5074582;28;20286;-86
2023/04/28 05:01:23;;;;;;;9.63;5.57;;;13.60;72.80;13.80;96278.00;;;;5093031;28;20671;-85
2023/04/28 05:03:51;;;;;;;6.20;5.43;;;13.60;72.90;13.90;96274.00;;;;5090436;28;20219;-84
2023/04/28 05:06:21;;;;;;;6.03;5.47;;;13.60;73.20;13.90;96277.00;;;;5088827;28;20254;-84
2023/04/28 05:08:48;;;;;;;6.60;5.77;;;13.60;73.50;13.90;96269.00;;;;5086847;28;20278;-83
2023/04/28 05:11:15;;;;;;;6.23;5.63;;;13.70;73.50;14.00;96264.00;;;;5094496;28;20740;-83
2023/04/28 05:13:43;;;;;;;7.23;5.93;;;13.70;73.80;14.00;96258.00;;;;5092255;28;20215;-84
2023/04/28 05:16:10;;;;;;;7.47;6.00;;;13.70;73.90;14.00;96252.00;;;;5089951;28;20675;-83
2023/04/28 05:18:37;;;;;;;6.73;6.03;;;13.70;74.10;14.10;96250.00;;;;5097233;28;20195;-82
2023/04/28 05:21:05;;;;;;;6.27;5.67;;;13.70;75.00;14.10;96253.00;;;;5091004;28;20259;-81
2023/04/28 05:23:34;;;;;;;6.43;5.70;;;13.80;74.60;14.10;96267.00;;;;5090363;28;20315;-82
2023/04/28 05:26:02;;;;;;;5.70;5.20;;;13.80;74.80;14.20;96265.00;;;;5086807;28;20196;-85
2023/04/28 05:28:30;;;;;;;7.83;6.30;;;13.80;75.10;14.20;96281.00;;;;5096932;28;20249;-85
2023/04/28 05:30:57;;;;;;;6.50;5.83;;;13.90;75.00;14.20;96272.00;;;;5094821;28;20195;-86
2023/04/28 05:33:24;;;;;;;6.17;5.57;;;13.90;75.00;14.20;96277.00;;;;5092519;28;20297;-85
2023/04/28 05:35:52;;;;;;;7.83;5.97;;;13.90;74.80;14.20;96281.00;;;;5090368;28;20259;-86
2023/04/28 05:38:20;;;;;;;5.90;5.30;;;13.90;74.60;14.30;96283.00;;;;5107773;28;20222;-86
2023/04/28 05:40:49;;;;;;;6.47;5.87;;;13.90;74.90;14.30;96284.00;;;;5093861;28;20214;-85
2023/04/28 05:43:16;;;;;;;6.63;6.10;;;14.00;75.20;14.30;96287.00;;;;5092338;28;20792;-86
2023/04/28 05:45:43;;;;;;;6.07;5.47;;;14.00;75.20;14.30;96285.00;;;;5072338;28;20649;-85
2023/04/28 05:48:11;;;;;;;5.90;5.37;;;14.00;75.10;14.30;96282.00;;;;5089933;28;20289;-86
2023/04/28 05:50:38;;;;;;;5.93;5.30;;;14.00;75.00;14.30;96280.00;;;;5078600;28;20200;-86
2023/04/28 05:53:06;;;;;;;5.70;5.20;;;14.10;75.20;14.40;96274.00;;;;5071426;28;20595;-86
2023/04/28 05:55:35;;;;;;;5.87;5.30;;;14.10;75.40;14.40;96290.00;;;;5081605;28;20196;-84
2023/04/28 05:58:04;;;;;;;5.70;5.07;;;14.10;75.70;14.40;96275.00;;;;5083968;28;20611;-85
2023/04/28 06:00:32;;;;;;;5.83;4.80;;;14.10;76.00;14.40;96268.00;;;;5089034;28;20219;-85
2023/04/28 06:02:59;;;;;;;5.17;4.67;;;14.10;76.20;14.50;96279.00;;;;5091053;28;20245;-85
2023/04/28 06:05:27;;;;;;;4.50;4.10;;;14.10;76.40;14.50;96269.00;;;;5093815;28;20198;-84
2023/04/28 06:07:54;;;;;;;3.80;3.37;;;14.20;76.60;14.50;96272.00;;;;5075153;28;20675;-84
2023/04/28 06:10:23;;;;;;;3.73;3.47;;;14.20;76.70;14.50;96274.00;;;;5093995;28;20652;-84
2023/04/28 06:12:50;;;;;;;3.97;3.67;;;14.20;77.00;14.60;96272.00;;;;5071472;28;20227;-84
2023/04/28 06:15:19;;;;;;;4.00;3.60;;;14.20;77.20;14.60;96271.00;;;;5084921;28;20285;-84
2023/04/28 06:17:47;;;;;;;4.20;3.77;;;14.30;77.30;14.60;96271.00;;;;5084557;28;20245;-84
2023/04/28 06:20:15;;;;;;;3.80;3.50;;;14.30;77.30;14.70;96278.00;;;;5092427;28;20236;-84
2023/04/28 06:22:43;;;;;;;3.00;2.80;;;14.40;77.50;14.70;96277.00;;;;5084061;28;20224;-84
2023/04/28 06:25:10;;;;;;;3.37;3.00;;;14.40;77.60;14.80;96271.00;;;;5081735;28;20203;-85
2023/04/28 06:27:37;;;;;;;3.20;2.90;;;14.40;77.60;14.80;96273.00;;;;5091048;28;20891;-85
2023/04/28 06:30:06;;;;;;;3.03;2.73;;;14.50;77.70;14.80;96281.00;;;;5091966;28;20199;-85
2023/04/28 06:32:35;;;;;;;2.30;2.20;;;14.50;77.80;14.90;96280.00;;;;5091703;28;20774;-85
2023/04/28 06:35:02;;;;;;;2.53;2.33;;;14.50;77.80;14.90;96295.00;;;;5091554;28;20187;-85
2023/04/28 06:37:30;;;;;;;2.30;2.10;;;14.60;77.60;14.90;96305.00;;;;5092101;28;20624;-85
2023/04/28 06:40:00;;;;;;;2.73;2.27;;;14.60;77.50;14.90;96309.00;;;;5090790;28;20198;-86
2023/04/28 06:42:28;;;;;;;1.97;1.87;;;14.60;77.60;14.90;96299.00;;;;5084481;28;20306;-86
2023/04/28 06:44:55;;;;;;;2.07;1.90;;;14.70;77.50;14.90;96290.00;;;;5091879;28;20640;-85
2023/04/28 06:47:22;;;;;;;2.03;1.93;;;14.70;77.30;14.90;96280.00;;;;5090131;28;20196;-85
2023/04/28 06:49:52;;;;;;;1.87;1.63;;;14.70;77.00;14.90;96278.00;;;;5088609;28;20248;-85
2023/04/28 06:52:21;;;;;;;1.50;1.40;;;14.70;77.00;14.90;96277.00;;;;5093230;28;20199;-85
2023/04/28 06:54:48;;;;;;;1.50;1.40;;;14.70;76.80;15.00;96280.00;;;;5093353;28;20662;-85
2023/04/28 06:57:16;;;;;;;2.07;1.83;;;14.80;77.10;15.00;96274.00;;;;5073674;28;20200;-85
2023/04/28 06:59:45;;;;;;;1.90;1.80;;;14.80;77.40;15.10;96270.00;;;;5075877;28;20278;-85
2023/04/28 07:02:12;;;;;;;1.83;1.50;;;14.80;77.40;15.20;96272.00;;;;5092126;28;20264;-85
2023/04/28 07:04:39;;;;;;;1.83;1.73;;;14.80;77.40;15.20;96275.00;;;;5094154;28;20191;-85
2023/04/28 07:07:10;;;;;;;1.80;1.70;;;14.90;77.60;15.30;96285.00;;;;5094240;28;20562;-85
2023/04/28 07:09:37;;;;;;;2.03;1.93;;;15.00;77.70;15.40;96284.00;;;;5088410;28;20234;-85
2023/04/28 07:12:05;;;;;;;1.87;1.77;;;15.00;78.40;15.50;96285.00;;;;5089430;28;20243;-85
2023/04/28 07:14:32;;;;;;;1.77;1.67;;;15.10;77.70;15.50;96287.00;;;;5092798;28;20229;-84
2023/04/28 07:17:00;;;;;;;2.67;1.70;;;15.10;77.70;15.50;96283.00;;;;5102095;28;20263;-84
2023/04/28 07:19:27;;;;;;;1.90;1.80;;;15.20;77.70;15.60;96296.00;;;;5108332;28;20202;-85
2023/04/28 07:21:54;;;;;;;1.50;1.40;;;15.20;77.60;15.60;96297.00;;;;5099139;28;20298;-85
2023/04/28 07:24:23;;;;;;;1.73;1.30;;;15.30;77.80;15.70;96303.00;;;;5090254;28;20246;-85
2023/04/28 07:26:51;;;;;;;1.47;1.33;;;15.30;77.90;15.70;96307.00;;;;5091302;28;20187;-85
2023/04/28 07:29:19;;;;;;;1.57;1.43;;;15.40;77.70;15.70;96307.00;;;;5089914;28;20239;-85
2023/04/28 07:31:46;;;;;;;1.40;1.30;;;15.40;77.80;15.80;96302.00;;;;5091045;28;20204;-85
2023/04/28 07:34:14;;;;;;;1.50;1.30;;;15.40;77.90;15.80;96316.00;;;;5091996;28;20326;-85
2023/04/28 07:36:41;;;;;;;1.70;1.60;;;15.40;77.90;15.80;96304.00;;;;5091801;28;20210;-85
2023/04/28 07:39:08;;;;;;;1.87;1.70;;;15.50;77.90;15.80;96303.00;;;;5085371;28;20653;-86
2023/04/28 07:41:38;;;;;;;1.60;1.50;;;15.40;77.80;15.70;96302.00;;;;5092938;28;20283;-84
2023/04/28 07:44:08;;;;;;;1.63;1.53;;;15.40;77.70;15.70;96301.00;;;;5089212;28;20683;-83
2023/04/28 07:46:37;;;;;;;2.23;1.70;;;15.40;77.70;15.70;96301.00;;;;5094962;28;20195;-83
2023/04/28 07:49:04;;;;;;;1.90;1.70;;;15.40;78.50;15.60;96298.00;;;;5094809;28;20723;-81
2023/04/28 07:51:31;;;;;;;1.70;1.60;;;15.40;78.30;15.60;96297.00;;;;5090561;28;20208;-83
2023/04/28 07:53:59;;;;;;;2.30;2.10;;;15.40;78.70;15.50;96289.00;;;;5084773;28;20298;-82
2023/04/28 07:56:27;;;;;;;2.30;2.10;;;15.30;79.10;15.50;96290.00;;;;5086968;28;20187;-83
2023/04/28 07:58:55;;;;;;;3.23;2.33;;;15.30;79.20;15.50;96291.00;;;;5093750;28;20660;-83
2023/04/28 08:01:23;;;;;;;4.47;3.37;;;15.30;79.30;15.50;96291.00;;;;5093567;28;20286;-83
2023/04/28 08:03:50;;;;;;;4.13;3.37;;;15.20;79.50;15.50;96289.00;;;;5091485;28;20322;-82
2023/04/28 08:06:18;;;;;;;3.60;3.30;;;15.30;79.60;15.50;96295.00;;;;5094193;28;20278;-81
2023/04/28 08:08:46;;;;;;;4.00;3.53;;;15.30;79.70;15.50;96292.00;;;;5096719;28;20195;-81
2023/04/28 08:11:13;;;;;;;4.27;3.97;;;15.20;79.90;15.40;96281.00;;;;5098475;28;20195;-82
2023/04/28 08:13:40;;;;;;;3.60;3.30;;;15.20;80.30;15.40;96276.00;;;;5096484;28;20302;-82
2023/04/28 08:16:09;;;;;;;3.20;2.40;;;15.20;80.60;15.40;96269.00;;;;5099423;28;20250;-81
2023/04/28 08:18:36;;;;;;;3.00;2.70;;;15.20;81.00;15.40;96260.00;;;;5099714;28;20275;-80
2023/04/28 08:21:04;;;;;;;2.27;2.07;;;15.10;81.30;15.40;96266.00;;;;5097534;28;20279;-81
2023/04/28 08:23:31;;;;;;;2.37;2.20;;;15.20;81.50;15.40;96252.00;;;;5080318;28;20257;-81
2023/04/28 08:25:59;;;;;;;6.50;5.67;;;15.20;81.60;15.40;96242.00;;;;5088918;28;20195;-81
2023/04/28 08:28:28;;;;;;;7.10;6.50;;;15.20;81.80;15.40;96239.00;;;;5098873;28;20196;-82
2023/04/28 08:30:55;;;;;;;6.60;6.00;;;15.20;81.70;15.40;96249.00;;;;5097338;28;20195;-82
2023/04/28 08:33:24;;;;;;;4.83;4.30;;;15.20;82.00;15.40;96240.00;;;;5097928;28;20254;-81
2023/04/28 08:35:51;;;;;;;4.93;4.53;;;15.20;82.40;15.50;96238.00;;;;5098322;28;20198;-81
2023/04/28 08:38:18;;;;;;;6.80;5.40;;;15.20;82.50;15.50;96250.00;;;;5099308;28;20258;-81
2023/04/28 08:40:46;;;;;;;5.17;4.73;;;15.20;82.70;15.60;96247.00;;;;5096902;28;20221;-81
2023/04/28 08:43:13;;;;;;;4.00;3.70;;;15.30;82.80;15.60;96249.00;;;;5098344;28;20246;-82
2023/04/28 08:45:44;;;;;;;3.00;2.80;;;15.20;82.70;15.60;96245.00;;;;5099535;28;20253;-81
2023/04/28 08:48:19;;;;;;;3.37;3.07;;;15.30;82.70;15.70;96237.00;;;;5099621;28;20199;-81
2023/04/28 08:50:52;;;;;;;3.63;3.33;;;15.30;83.10;15.70;96239.00;;;;5099715;28;20195;-81
2023/04/28 08:53:25;;;;;;;2.83;2.63;;;15.30;83.20;15.80;96241.00;;;;5099012;28;20222;-81
2023/04/28 08:55:56;;;;;;;3.10;2.77;;;15.40;83.50;15.90;96236.00;;;;5101025;28;20199;-81
2023/04/28 08:58:24;;;;;;;4.57;4.23;;;15.40;83.60;15.90;96239.00;;;;5099180;28;20195;-80
2023/04/28 09:00:52;;;;;;;3.70;3.33;;;15.50;83.70;16.00;96235.00;;;;5099917;28;20274;-82
2023/04/28 09:03:19;;;;;;;3.70;3.40;;;15.50;83.70;16.10;96232.00;;;;5099900;28;20215;-80
2023/04/28 09:05:47;;;;;;;3.77;3.07;;;15.60;83.90;16.20;96237.00;;;;5097959;28;20221;-82
2023/04/28 09:08:17;;;;;;;3.60;3.30;;;15.70;84.10;16.20;96219.00;;;;5084078;28;20577;-81
2023/04/28 09:10:44;;;;;;;3.33;3.03;;;15.70;84.20;16.30;96233.00;;;;5100953;28;20249;-82
2023/04/28 09:13:26;;;;;;;3.27;3.00;;;15.80;84.40;16.40;96232.00;;;;5098522;28;20283;-82
2023/04/28 09:16:01;;;;;;;3.30;2.97;;;15.90;84.30;16.40;96230.00;;;;5097483;28;20968;-82
2023/04/28 09:18:31;;;;;;;3.00;2.80;;;15.90;84.10;16.50;96231.00;;;;5088548;28;20655;-81
2023/04/28 09:21:06;;;;;;;2.90;2.67;;;16.00;83.90;16.40;96229.00;;;;5100728;28;20191;-81
2023/04/28 09:23:35;;;;;;;2.63;2.43;;;16.00;83.60;16.40;96217.00;;;;5090354;28;20222;-83
2023/04/28 09:26:06;;;;;;;3.83;2.53;;;16.10;83.40;16.40;96219.00;;;;5098541;28;20283;-82
2023/04/28 09:28:35;;;;;;;2.70;2.50;;;16.10;83.20;16.40;96209.00;;;;5099986;28;20195;-81
2023/04/28 09:31:03;;;;;;;2.63;2.43;;;16.10;83.20;16.40;96201.00;;;;5095620;28;20719;-81
2023/04/28 09:33:31;;;;;;;4.50;4.10;;;16.10;83.20;16.50;96200.00;;;;5100394;28;20219;-82
2023/04/28 09:35:58;;;;;;;3.47;3.17;;;16.10;83.30;16.50;96203.00;;;;5099844;28;20660;-82
2023/04/28 09:38:25;;;;;;;4.10;3.80;;;16.10;83.30;16.60;96201.00;;;;5105153;28;20211;-81
2023/04/28 09:40:59;;;;;;;5.23;4.83;;;16.20;83.20;16.50;96193.00;;;;5105076;28;20227;-81
2023/04/28 09:43:29;;;;;;;4.80;4.40;;;16.20;83.20;16.60;96200.00;;;;5111655;28;20218;-82
2023/04/28 09:45:58;;;;;;;3.67;3.37;;;16.20;83.30;16.60;96200.00;;;;5108323;28;20219;-81
2023/04/28 09:48:31;;;;;;;4.03;3.63;;;16.20;83.40;16.70;96201.00;;;;5098239;28;20596;-82
2023/04/28 09:51:02;;;;;;;4.03;3.60;;;16.30;83.60;16.70;96197.00;;;;5097960;28;20660;-81
2023/04/28 09:53:30;;;;;;;4.03;3.70;;;16.30;83.70;16.80;96196.00;;;;5098920;28;20245;-82
2023/04/28 09:56:02;;;;;;;3.07;2.83;;;16.30;83.60;16.80;96188.00;;;;5097607;28;20286;-81
2023/04/28 09:58:31;;;;;;;2.77;2.43;;;16.40;83.50;16.80;96193.00;;;;5090540;28;20298;-82
2023/04/28 10:01:00;;;;;;;2.53;2.33;;;16.40;83.30;16.80;96200.00;;;;5095518;28;20191;-82
2023/04/28 10:03:29;;;;;;;2.23;1.77;;;16.40;83.30;16.80;96206.00;;;;5087797;28;20653;-81
2023/04/28 10:05:58;;;;;;;2.10;1.90;;;16.40;83.40;16.80;96206.00;;;;5090230;28;20282;-81
2023/04/28 10:08:27;;;;;;;1.43;1.30;;;16.50;83.50;16.80;96212.00;;;;5095519;28;20191;-81
2023/04/28 10:10:56;;;;;;;2.10;1.90;;;16.50;83.70;16.90;96204.00;;;;5096664;28;20215;-81
2023/04/28 10:13:25;;;;;;;1.60;1.50;;;16.50;83.70;16.90;96206.00;;;;5097062;28;20222;-80
2023/04/28 10:15:56;;;;;;;2.47;1.73;;;16.50;83.90;16.90;96207.00;;;;5096206;28;20222;-80
2023/04/28 10:18:24;;;;;;;1.87;1.53;;;16.60;84.20;16.90;96211.00;;;;5095017;28;20209;-81
2023/04/28 10:20:59;;;;;;;1.83;1.60;;;16.60;84.30;16.90;96213.00;;;;5087182;28;20202;-81
2023/04/28 10:24:11;;;;;;;1.53;1.43;;;16.60;85.00;16.90;96206.00;;;;5088494;28;20214;-80
2023/04/28 10:27:04;;;;;;;1.90;1.50;;;16.60;84.60;16.90;96206.00;;;;5095003;28;20575;-81
2023/04/28 10:29:34;;;;;;;1.60;1.20;;;16.60;84.70;16.90;96201.00;;;;5082648;28;20204;-80
2023/04/28 10:32:24;;;;;;;1.10;1.10;;;16.60;85.30;16.80;96203.00;;;;5097606;28;20273;-80
2023/04/28 10:34:52;;;;;;;1.43;1.33;;;16.60;84.80;16.80;96201.00;;;;5094578;28;20206;-80
2023/04/28 10:37:19;;;;;;;1.07;1.07;;;16.60;84.70;16.80;96201.00;;;;5106468;28;20199;-80
2023/04/28 10:40:34;;;;;;;1.10;1.00;;;16.60;84.70;16.80;96201.00;;;;5107435;28;20598;-79
2023/04/28 10:43:03;;;;;;;2.43;1.00;;;16.60;85.00;16.70;96198.00;;;;5090049;28;20649;-79
2023/04/28 10:46:07;;;;;;;0.83;0.83;;;16.50;84.80;16.70;96193.00;;;;5096516;28;20192;-80
2023/04/28 10:48:57;;;;;;;1.90;1.17;;;16.60;85.30;16.70;96193.00;;;;5095611;28;20225;-79
2023/04/28 10:51:30;;;;;;;1.47;1.00;;;16.50;85.40;16.70;96193.00;;;;5097352;28;20236;-79
2023/04/28 10:54:18;;;;;;;1.27;1.17;;;16.50;85.40;16.60;96185.00;;;;5097296;28;20215;-79
2023/04/28 10:57:21;;;;;;;2.17;1.20;;;16.50;85.50;16.60;96192.00;;;;5089517;28;20200;-79
2023/04/28 10:59:50;;;;;;;1.17;1.07;;;16.50;85.50;16.60;96197.00;;;;5094374;28;20191;-79
2023/04/28 11:02:41;;;;;;;1.00;1.00;;;16.50;85.50;16.60;96192.00;;;;5094481;28;20219;-80